Time;durP1;ratioP1;P1;durP2;ratioP2;P2;SDS_P1;SDS_P2;PMS_P1;PMS_P2;Temp;Humidity;BMP_temperature;BMP_pressure;BME280_temperature;BME280_humidity;BME280_pressure;Samples;Min_cycle;Max_cycle;Signal;HPM_P1;HPM_P2
2023/09/17 00:00:30;;;;;;;1.13;1.10;;;;;19.00;95916.00;;;;5053246;28;20254;-64
2023/09/17 00:02:58;;;;;;;1.63;1.53;;;;;19.10;95916.00;;;;5053335;28;20211;-64
2023/09/17 00:05:26;;;;;;;0.97;0.97;;;;;19.10;95916.00;;;;5054087;28;20699;-64
2023/09/17 00:07:53;;;;;;;1.53;1.50;;;;;19.10;95912.00;;;;5036155;28;20203;-64
2023/09/17 00:10:22;;;;;;;1.27;1.23;;;;;19.10;95922.00;;;;5053656;28;20192;-64
2023/09/17 00:12:53;;;;;;;0.87;0.87;;;;;19.00;95919.00;;;;5053256;28;20655;-64
2023/09/17 00:15:22;;;;;;;1.07;1.07;;;;;18.80;95924.00;;;;5053291;28;20212;-65
2023/09/17 00:17:50;;;;;;;0.90;0.90;;;;;18.90;95932.00;;;;5052643;28;20678;-64
2023/09/17 00:20:17;;;;;;;0.97;0.97;;;;;18.90;95924.00;;;;5052927;28;20219;-64
2023/09/17 00:22:45;;;;;;;0.80;0.80;;;;;18.80;95916.00;;;;5052847;28;20196;-64
2023/09/17 00:25:15;;;;;;;1.07;1.07;;;;;18.90;95922.00;;;;5052689;28;20204;-64
2023/09/17 00:27:42;;;;;;;0.80;0.80;;;;;18.90;95925.00;;;;5053174;28;20199;-64
2023/09/17 00:30:18;;;;;;;0.93;0.83;;;;;19.00;95916.00;;;;5052751;28;20199;-65
2023/09/17 00:32:49;;;;;;;1.77;1.67;;;;;18.90;95914.00;;;;5053145;28;20180;-65
2023/09/17 00:35:18;;;;;;;1.33;1.33;;;;;18.80;95916.00;;;;5052697;28;20224;-65
2023/09/17 00:37:45;;;;;;;1.67;1.57;;;;;18.70;95917.00;;;;5052896;28;20246;-65
2023/09/17 00:40:13;;;;;;;1.00;1.00;;;;;18.70;95920.00;;;;5052748;28;20652;-65
2023/09/17 00:42:42;;;;;;;1.30;1.30;;;;;18.60;95917.00;;;;5052748;28;20200;-65
2023/09/17 00:45:12;;;;;;;2.33;2.10;;;;;18.60;95913.00;;;;5052343;28;20215;-65
2023/09/17 00:47:42;;;;;;;0.80;0.80;;;;;18.50;95916.00;;;;5053145;28;20188;-65
2023/09/17 00:50:13;;;;;;;0.70;0.70;;;;;18.50;95922.00;;;;5053378;28;20203;-65
2023/09/17 00:52:41;;;;;;;1.00;1.00;;;;;18.50;95922.00;;;;5038327;28;20184;-65
2023/09/17 00:55:10;;;;;;;0.90;0.90;;;;;18.40;95924.00;;;;5055994;28;20220;-65
2023/09/17 00:57:38;;;;;;;1.30;1.30;;;;;18.40;95922.00;;;;5056550;28;20293;-65
2023/09/17 01:00:09;;;;;;;0.90;0.90;;;;;18.50;95925.00;;;;5056116;28;20195;-65
2023/09/17 01:02:37;;;;;;;1.67;1.57;;;;;18.50;95924.00;;;;5056128;28;20219;-65
2023/09/17 01:05:06;;;;;;;1.83;1.73;;;;;18.50;95918.00;;;;5056122;28;20203;-65
2023/09/17 01:07:35;;;;;;;0.50;0.50;;;;;18.50;95921.00;;;;5055737;28;20228;-63
2023/09/17 01:10:04;;;;;;;1.47;1.37;;;;;18.40;95917.00;;;;5055769;28;20200;-65
2023/09/17 01:12:32;;;;;;;0.83;0.83;;;;;18.30;95917.00;;;;5055724;28;20238;-65
2023/09/17 01:14:59;;;;;;;1.10;1.10;;;;;18.20;95912.00;;;;5037757;28;20228;-65
2023/09/17 01:17:30;;;;;;;2.10;2.00;;;;;18.20;95918.00;;;;5056115;28;20199;-65
2023/09/17 01:20:07;;;;;;;0.77;0.77;;;;;18.10;95927.00;;;;5055831;28;20686;-65
2023/09/17 01:22:44;;;;;;;1.50;1.43;;;;;18.00;95925.00;;;;5055621;28;20184;-64
2023/09/17 01:25:21;;;;;;;1.20;1.20;;;;;18.00;95915.00;;;;5055539;28;20242;-65
2023/09/17 01:27:50;;;;;;;1.20;1.20;;;;;18.00;95922.00;;;;5056090;28;20184;-65
2023/09/17 01:30:21;;;;;;;1.23;1.23;;;;;18.00;95921.00;;;;5055405;28;20197;-65
2023/09/17 01:32:48;;;;;;;1.13;1.13;;;;;18.00;95918.00;;;;5055664;28;20191;-65
2023/09/17 01:35:17;;;;;;;1.30;1.30;;;;;17.90;95922.00;;;;5055273;28;20310;-65
2023/09/17 01:37:50;;;;;;;0.60;0.60;;;;;17.80;95920.00;;;;5055683;28;20192;-65
2023/09/17 01:40:18;;;;;;;0.90;0.90;;;;;17.80;95923.00;;;;5055759;28;20234;-65
2023/09/17 01:42:49;;;;;;;0.73;0.73;;;;;17.80;95922.00;;;;5055217;28;20196;-65
2023/09/17 01:45:17;;;;;;;1.73;1.23;;;;;17.80;95928.00;;;;5037123;28;20216;-64
2023/09/17 01:47:47;;;;;;;1.30;1.30;;;;;17.80;95930.00;;;;5054992;28;20533;-64
2023/09/17 01:50:16;;;;;;;0.60;0.60;;;;;17.70;95934.00;;;;5055477;28;20204;-64
2023/09/17 01:52:48;;;;;;;0.90;0.90;;;;;17.80;95934.00;;;;5054859;28;20526;-64
2023/09/17 01:55:15;;;;;;;0.97;0.97;;;;;17.70;95934.00;;;;5055007;28;20228;-64
2023/09/17 01:57:42;;;;;;;0.80;0.80;;;;;17.80;95926.00;;;;5054806;28;20199;-64
2023/09/17 02:00:16;;;;;;;1.40;1.30;;;;;17.80;95928.00;;;;5054875;28;20199;-64
2023/09/17 02:02:47;;;;;;;0.77;0.77;;;;;17.80;95928.00;;;;5054298;28;20227;-64
2023/09/17 02:05:16;;;;;;;1.33;1.33;;;;;17.70;95926.00;;;;5054780;28;20204;-64
2023/09/17 02:07:44;;;;;;;1.43;1.33;;;;;17.70;95926.00;;;;5054743;28;20207;-64
2023/09/17 02:10:11;;;;;;;1.03;1.00;;;;;17.60;95923.00;;;;5054992;28;20196;-65
2023/09/17 02:12:39;;;;;;;0.70;0.70;;;;;17.40;95917.00;;;;5054626;28;20207;-64
2023/09/17 02:15:12;;;;;;;1.33;1.23;;;;;17.40;95926.00;;;;5054322;28;20219;-64
2023/09/17 02:17:44;;;;;;;1.23;1.23;;;;;17.50;95920.00;;;;5054593;28;20280;-64
2023/09/17 02:20:14;;;;;;;0.60;0.60;;;;;17.50;95924.00;;;;5054514;28;20196;-64
2023/09/17 02:22:41;;;;;;;1.23;1.23;;;;;17.40;95924.00;;;;5054621;28;20648;-65
2023/09/17 02:25:12;;;;;;;1.23;1.23;;;;;17.50;95927.00;;;;5054275;28;20211;-65
2023/09/17 02:27:42;;;;;;;1.80;1.17;;;;;17.50;95918.00;;;;5054361;28;20176;-65
2023/09/17 02:30:11;;;;;;;1.10;1.10;;;;;17.40;95928.00;;;;5054273;28;20196;-65
2023/09/17 02:32:38;;;;;;;1.07;0.93;;;;;17.30;95931.00;;;;5054358;28;20191;-65
2023/09/17 02:35:07;;;;;;;1.80;1.20;;;;;17.10;95946.00;;;;5054149;28;20220;-65
2023/09/17 02:37:37;;;;;;;0.80;0.80;;;;;16.90;95945.00;;;;5054205;28;20655;-65
2023/09/17 02:40:08;;;;;;;1.57;1.47;;;;;17.00;95949.00;;;;5054236;28;20202;-65
2023/09/17 02:42:36;;;;;;;1.03;1.03;;;;;17.10;95947.00;;;;5054268;28;20246;-64
2023/09/17 02:45:05;;;;;;;1.10;1.10;;;;;17.10;95940.00;;;;5053917;28;20216;-64
2023/09/17 02:47:34;;;;;;;1.60;1.50;;;;;17.20;95940.00;;;;5054063;28;20192;-64
2023/09/17 02:50:03;;;;;;;1.53;1.43;;;;;17.20;95947.00;;;;5054259;28;20196;-64
2023/09/17 02:52:30;;;;;;;1.00;1.00;;;;;17.30;95954.00;;;;5053865;28;20251;-64
2023/09/17 02:54:57;;;;;;;0.60;0.60;;;;;17.30;95942.00;;;;5054149;28;20227;-64
2023/09/17 02:57:25;;;;;;;0.97;0.97;;;;;17.30;95934.00;;;;5053731;28;20242;-64
2023/09/17 02:59:53;;;;;;;1.67;1.57;;;;;17.20;95926.00;;;;5054060;28;20544;-65
2023/09/17 03:02:21;;;;;;;0.97;0.97;;;;;17.00;95936.00;;;;5035614;28;20200;-64
2023/09/17 03:04:52;;;;;;;0.97;0.97;;;;;17.00;95942.00;;;;5053658;28;20683;-64
2023/09/17 03:07:20;;;;;;;0.87;0.87;;;;;16.90;95950.00;;;;5053885;28;20682;-64
2023/09/17 03:09:47;;;;;;;1.93;1.83;;;;;17.00;95945.00;;;;5053784;28;20275;-64
2023/09/17 03:12:14;;;;;;;1.03;1.03;;;;;17.00;95943.00;;;;5053570;28;20230;-64
2023/09/17 03:14:42;;;;;;;1.00;1.00;;;;;16.90;95949.00;;;;5034558;28;20216;-64
2023/09/17 03:17:09;;;;;;;1.50;1.40;;;;;16.90;95940.00;;;;5053367;28;20196;-64
2023/09/17 03:19:37;;;;;;;1.83;1.73;;;;;17.00;95935.00;;;;5053626;28;20192;-64
2023/09/17 03:22:06;;;;;;;1.03;1.03;;;;;17.00;95947.00;;;;5035408;28;20207;-64
2023/09/17 03:24:33;;;;;;;0.60;0.60;;;;;16.90;95933.00;;;;5053571;28;20247;-64
2023/09/17 03:27:02;;;;;;;1.17;1.13;;;;;16.90;95945.00;;;;5053279;28;20191;-64
2023/09/17 03:29:30;;;;;;;1.13;1.03;;;;;16.80;95939.00;;;;5053588;28;20188;-64
2023/09/17 03:31:57;;;;;;;0.93;0.93;;;;;16.70;95936.00;;;;5053713;28;20253;-64
2023/09/17 03:34:24;;;;;;;1.20;1.20;;;;;16.70;95939.00;;;;5053166;28;20219;-64
2023/09/17 03:36:52;;;;;;;0.97;0.97;;;;;16.70;95928.00;;;;5053600;28;20192;-65
2023/09/17 03:39:21;;;;;;;0.77;0.77;;;;;16.70;95934.00;;;;5053141;28;20559;-64
2023/09/17 03:41:48;;;;;;;1.10;1.10;;;;;16.60;95938.00;;;;5053111;28;20269;-64
2023/09/17 03:44:16;;;;;;;1.20;1.10;;;;;16.60;95935.00;;;;5053076;28;20257;-64
2023/09/17 03:46:43;;;;;;;0.97;0.97;;;;;16.60;95934.00;;;;5053134;28;20192;-64
2023/09/17 03:49:11;;;;;;;0.70;0.70;;;;;16.60;95929.00;;;;5053229;28;20190;-64
2023/09/17 03:51:38;;;;;;;1.23;1.20;;;;;16.60;95927.00;;;;5053142;28;20206;-64
2023/09/17 03:54:06;;;;;;;1.13;1.13;;;;;16.60;95930.00;;;;5052755;28;20215;-64
2023/09/17 03:56:35;;;;;;;0.97;0.97;;;;;16.80;95928.00;;;;5052917;28;20199;-64
2023/09/17 03:59:03;;;;;;;0.90;0.90;;;;;16.70;95928.00;;;;5052935;28;20192;-64
2023/09/17 04:01:32;;;;;;;1.23;1.00;;;;;16.70;95929.00;;;;5053186;28;20188;-64
2023/09/17 04:03:59;;;;;;;1.40;1.30;;;;;16.70;95929.00;;;;5052677;28;20593;-64
2023/09/17 04:06:27;;;;;;;1.40;1.40;;;;;16.70;95924.00;;;;5053031;28;20189;-65
2023/09/17 04:08:55;;;;;;;1.33;1.07;;;;;16.70;95926.00;;;;5053390;28;20211;-65
2023/09/17 04:11:22;;;;;;;0.90;0.90;;;;;16.60;95930.00;;;;5052916;28;20214;-65
2023/09/17 04:13:51;;;;;;;1.30;1.30;;;;;16.60;95931.00;;;;5052894;28;20805;-64
2023/09/17 04:16:20;;;;;;;1.97;1.83;;;;;16.40;95921.00;;;;5052928;28;20216;-64
2023/09/17 04:18:50;;;;;;;0.83;0.83;;;;;16.60;95926.00;;;;5052992;28;20242;-64
2023/09/17 04:21:19;;;;;;;0.60;0.60;;;;;16.40;95929.00;;;;5053065;28;20282;-64
2023/09/17 04:23:47;;;;;;;1.40;1.30;;;;;16.40;95933.00;;;;5053120;28;20227;-64
2023/09/17 04:26:15;;;;;;;1.03;1.03;;;;;16.40;95923.00;;;;5054886;28;20283;-64
2023/09/17 04:28:43;;;;;;;1.00;1.00;;;;;16.50;95931.00;;;;5056884;28;20192;-64
2023/09/17 04:31:12;;;;;;;0.93;0.93;;;;;16.50;95927.00;;;;5056726;28;20200;-64
2023/09/17 04:33:39;;;;;;;2.10;1.87;;;;;16.50;95937.00;;;;5056475;28;20577;-65
2023/09/17 04:36:07;;;;;;;1.07;1.07;;;;;16.50;95941.00;;;;5038487;28;20227;-64
2023/09/17 04:38:34;;;;;;;1.20;1.20;;;;;16.40;95945.00;;;;5056538;28;20298;-64
2023/09/17 04:41:03;;;;;;;1.20;1.20;;;;;16.40;95952.00;;;;5056102;28;20192;-64
2023/09/17 04:43:30;;;;;;;1.27;1.27;;;;;16.50;95943.00;;;;5056309;28;20227;-64
2023/09/17 04:45:59;;;;;;;1.13;1.10;;;;;16.60;95945.00;;;;5056362;28;20220;-64
2023/09/17 04:48:28;;;;;;;0.90;0.90;;;;;16.60;95954.00;;;;5038566;28;20200;-64
2023/09/17 04:50:56;;;;;;;2.97;1.60;;;;;16.50;95950.00;;;;5056488;28;20200;-64
2023/09/17 04:53:23;;;;;;;1.73;1.63;;;;;16.30;95955.00;;;;5055937;28;20667;-64
2023/09/17 04:55:51;;;;;;;1.40;1.40;;;;;16.40;95949.00;;;;5055926;28;20227;-64
2023/09/17 04:58:18;;;;;;;0.90;0.90;;;;;16.40;95948.00;;;;5056098;28;20667;-64
2023/09/17 05:00:45;;;;;;;0.80;0.80;;;;;16.50;95956.00;;;;5056060;28;20196;-64
2023/09/17 05:03:13;;;;;;;1.70;1.60;;;;;16.30;95958.00;;;;5056030;28;20207;-64
2023/09/17 05:05:42;;;;;;;1.40;1.33;;;;;16.30;95959.00;;;;5038070;28;20211;-64
2023/09/17 05:08:10;;;;;;;0.80;0.80;;;;;16.30;95959.00;;;;5055902;28;20192;-64
2023/09/17 05:10:37;;;;;;;0.87;0.87;;;;;16.40;95962.00;;;;5056186;28;20202;-64
2023/09/17 05:13:05;;;;;;;1.00;1.00;;;;;16.30;95966.00;;;;5056039;28;20291;-64
2023/09/17 05:15:34;;;;;;;2.10;2.00;;;;;16.40;95961.00;;;;5037669;28;20219;-64
2023/09/17 05:18:09;;;;;;;1.07;1.07;;;;;16.40;95964.00;;;;5056098;28;20200;-64
2023/09/17 05:20:38;;;;;;;1.20;1.20;;;;;16.50;95965.00;;;;5055603;28;20262;-64
2023/09/17 05:23:06;;;;;;;1.33;1.23;;;;;16.50;95971.00;;;;5056009;28;20192;-66
2023/09/17 05:25:35;;;;;;;0.90;0.90;;;;;16.50;95973.00;;;;5056695;28;20207;-64
2023/09/17 05:28:06;;;;;;;0.83;0.83;;;;;16.60;95981.00;;;;5055792;28;20196;-64
2023/09/17 05:30:34;;;;;;;1.07;1.07;;;;;16.60;95977.00;;;;5055371;28;20264;-64
2023/09/17 05:33:02;;;;;;;0.50;0.50;;;;;16.70;95978.00;;;;5055168;28;20364;-64
2023/09/17 05:35:29;;;;;;;1.27;1.23;;;;;16.80;95984.00;;;;5055173;28;20228;-64
2023/09/17 05:37:57;;;;;;;1.47;1.37;;;;;16.80;95980.00;;;;5054545;28;20682;-64
2023/09/17 05:40:25;;;;;;;0.93;0.93;;;;;16.80;95980.00;;;;5055690;28;20188;-64
2023/09/17 05:42:53;;;;;;;1.10;1.10;;;;;16.80;95980.00;;;;5055245;28;20188;-64
2023/09/17 05:45:20;;;;;;;0.80;0.80;;;;;16.70;95973.00;;;;5037288;28;20212;-65
2023/09/17 05:47:48;;;;;;;1.37;1.30;;;;;16.50;95980.00;;;;5055146;28;20196;-65
2023/09/17 05:50:17;;;;;;;1.93;1.83;;;;;16.60;95977.00;;;;5055137;28;20188;-65
2023/09/17 05:52:44;;;;;;;0.93;0.93;;;;;16.70;95982.00;;;;5055560;28;20199;-64
2023/09/17 05:55:11;;;;;;;1.50;1.40;;;;;16.60;95978.00;;;;5055496;28;20555;-64
2023/09/17 05:57:42;;;;;;;1.57;1.47;;;;;16.80;95976.00;;;;5054951;28;20200;-65
2023/09/17 06:00:11;;;;;;;1.33;1.33;;;;;16.70;95990.00;;;;5037161;28;20192;-64
2023/09/17 06:02:38;;;;;;;4.30;2.07;;;;;16.70;95982.00;;;;5054819;28;20246;-64
2023/09/17 06:05:06;;;;;;;1.13;1.13;;;;;16.60;95979.00;;;;5054851;28;20212;-65
2023/09/17 06:07:34;;;;;;;1.20;1.20;;;;;16.70;95987.00;;;;5054731;28;20196;-65
2023/09/17 06:10:01;;;;;;;1.27;1.23;;;;;16.60;95984.00;;;;5054703;28;20203;-64
2023/09/17 06:12:29;;;;;;;0.83;0.83;;;;;16.60;95977.00;;;;5054577;28;20243;-69
2023/09/17 06:14:58;;;;;;;1.83;1.73;;;;;16.70;95977.00;;;;5054316;28;20775;-64
2023/09/17 06:17:25;;;;;;;4.57;1.37;;;;;16.70;95977.00;;;;5054614;28;20202;-64
2023/09/17 06:19:53;;;;;;;1.10;1.10;;;;;16.80;95979.00;;;;5054553;28;20188;-65
2023/09/17 06:22:21;;;;;;;1.43;1.33;;;;;16.70;95972.00;;;;5054592;28;20203;-65
2023/09/17 06:24:49;;;;;;;3.53;1.00;;;;;16.70;95982.00;;;;5054338;28;20215;-64
2023/09/17 06:27:16;;;;;;;0.90;0.90;;;;;16.80;95985.00;;;;5054796;28;20191;-65
2023/09/17 06:29:43;;;;;;;1.10;1.10;;;;;16.70;95985.00;;;;5054688;28;20192;-64
2023/09/17 06:32:12;;;;;;;1.70;1.60;;;;;16.60;95983.00;;;;5054532;28;20199;-64
2023/09/17 06:34:41;;;;;;;1.13;1.13;;;;;16.90;95979.00;;;;5054432;28;20222;-64
2023/09/17 06:37:08;;;;;;;0.97;0.97;;;;;17.00;95976.00;;;;5054144;28;20216;-65
2023/09/17 06:39:36;;;;;;;0.93;0.93;;;;;17.20;95974.00;;;;5054139;28;20683;-64
2023/09/17 06:42:05;;;;;;;1.30;1.23;;;;;17.40;95975.00;;;;5054371;28;20193;-64
2023/09/17 06:44:32;;;;;;;0.97;0.97;;;;;17.50;95976.00;;;;5054501;28;20212;-64
2023/09/17 06:47:02;;;;;;;1.73;1.63;;;;;17.60;95978.00;;;;5053906;28;20188;-64
2023/09/17 06:49:31;;;;;;;1.13;1.13;;;;;17.80;95984.00;;;;5053360;28;20223;-64
2023/09/17 06:51:58;;;;;;;0.93;0.93;;;;;17.90;95982.00;;;;5053903;28;20199;-63
2023/09/17 06:54:26;;;;;;;1.00;1.00;;;;;17.90;95982.00;;;;5054351;28;20243;-64
2023/09/17 06:56:53;;;;;;;0.80;0.80;;;;;18.00;95984.00;;;;5053684;28;20219;-65
2023/09/17 06:59:24;;;;;;;1.10;1.10;;;;;17.90;95982.00;;;;5053653;28;20192;-65
2023/09/17 07:01:51;;;;;;;1.37;1.33;;;;;17.90;95981.00;;;;5054191;28;20196;-65
2023/09/17 07:04:19;;;;;;;0.70;0.70;;;;;18.00;95975.00;;;;5036203;28;20235;-65
2023/09/17 07:06:47;;;;;;;1.27;1.27;;;;;18.20;95982.00;;;;5054401;28;20647;-65
2023/09/17 07:09:15;;;;;;;2.13;1.97;;;;;18.30;95978.00;;;;5053917;28;20189;-65
2023/09/17 07:11:42;;;;;;;1.70;1.60;;;;;18.30;95980.00;;;;5053562;28;20199;-65
2023/09/17 07:14:10;;;;;;;1.40;1.37;;;;;18.40;95988.00;;;;5053494;28;20294;-65
2023/09/17 07:16:37;;;;;;;1.23;1.13;;;;;18.50;95989.00;;;;5053347;28;20215;-64
2023/09/17 07:19:05;;;;;;;1.47;1.37;;;;;18.50;95995.00;;;;5053506;28;20194;-64
2023/09/17 07:21:33;;;;;;;1.07;1.07;;;;;18.60;95988.00;;;;5053446;28;20203;-65
2023/09/17 07:24:01;;;;;;;1.73;1.63;;;;;18.80;95991.00;;;;5053541;28;20223;-65
2023/09/17 07:26:29;;;;;;;2.00;1.87;;;;;18.90;95990.00;;;;5053384;28;20194;-64
2023/09/17 07:28:57;;;;;;;1.60;1.00;;;;;19.10;95994.00;;;;5053810;28;20198;-64
2023/09/17 07:31:27;;;;;;;1.57;1.37;;;;;19.20;95980.00;;;;5035335;28;20204;-64
2023/09/17 07:33:54;;;;;;;2.43;1.93;;;;;19.40;95993.00;;;;5053292;28;20222;-64
2023/09/17 07:36:22;;;;;;;1.03;1.03;;;;;19.50;95991.00;;;;5053016;28;20212;-65
2023/09/17 07:38:51;;;;;;;1.30;1.20;;;;;19.70;95985.00;;;;5053174;28;20198;-65
2023/09/17 07:41:20;;;;;;;0.60;0.60;;;;;19.90;95995.00;;;;5053069;28;20200;-65
2023/09/17 07:43:47;;;;;;;1.33;1.23;;;;;19.90;95989.00;;;;5052924;28;20208;-65
2023/09/17 07:46:15;;;;;;;0.83;0.83;;;;;20.10;95987.00;;;;5053152;28;20215;-65
2023/09/17 07:48:46;;;;;;;0.80;0.80;;;;;20.20;95984.00;;;;5052891;28;20685;-65
2023/09/17 07:51:13;;;;;;;0.73;0.73;;;;;20.30;95989.00;;;;5052995;28;20180;-65
2023/09/17 07:53:41;;;;;;;1.92;0.95;;;;;20.50;96000.00;;;;5053106;28;20207;-64
2023/09/17 07:56:10;;;;;;;1.10;1.10;;;;;20.50;95998.00;;;;5052900;28;20710;-65
2023/09/17 07:58:39;;;;;;;0.83;0.83;;;;;20.50;96002.00;;;;5052854;28;20188;-65
2023/09/17 08:01:07;;;;;;;1.13;1.13;;;;;20.70;96002.00;;;;5054618;28;20271;-65
2023/09/17 08:03:34;;;;;;;0.70;0.70;;;;;20.70;96002.00;;;;5056685;28;20219;-65
2023/09/17 08:06:03;;;;;;;1.47;1.37;;;;;20.90;95998.00;;;;5057220;28;20187;-65
2023/09/17 08:08:30;;;;;;;1.00;0.90;;;;;21.00;96006.00;;;;5057146;28;20192;-65
2023/09/17 08:10:58;;;;;;;1.50;1.17;;;;;21.20;96014.00;;;;5056897;28;20195;-64
2023/09/17 08:13:25;;;;;;;1.00;1.00;;;;;21.10;96011.00;;;;5056816;28;20579;-64
2023/09/17 08:15:55;;;;;;;0.70;0.70;;;;;21.30;96014.00;;;;5056848;28;20216;-64
2023/09/17 08:18:22;;;;;;;0.80;0.80;;;;;21.50;96013.00;;;;5056691;28;20660;-64
2023/09/17 08:20:53;;;;;;;1.17;0.82;;;;;21.50;96001.00;;;;5056977;28;20173;-64
2023/09/17 08:23:20;;;;;;;1.00;1.00;;;;;21.80;96002.00;;;;5056432;28;20192;-64
2023/09/17 08:25:48;;;;;;;0.73;0.73;;;;;21.90;96004.00;;;;5056748;28;20220;-65
2023/09/17 08:28:22;;;;;;;0.70;0.70;;;;;22.00;96000.00;;;;5056475;28;20188;-64
2023/09/17 08:30:50;;;;;;;0.68;0.68;;;;;22.10;96003.00;;;;5056567;28;20188;-64
2023/09/17 08:33:20;;;;;;;1.48;1.38;;;;;22.30;96000.00;;;;5038306;28;20196;-64
2023/09/17 08:35:48;;;;;;;0.73;0.73;;;;;22.30;95998.00;;;;5056344;28;20185;-64
2023/09/17 08:38:15;;;;;;;0.50;0.50;;;;;22.30;96001.00;;;;5056119;28;20195;-64
2023/09/17 08:40:43;;;;;;;0.47;0.47;;;;;22.40;96001.00;;;;5056710;28;20218;-65
2023/09/17 08:43:13;;;;;;;3.28;1.17;;;;;22.60;96003.00;;;;5056372;28;20196;-65
2023/09/17 08:45:41;;;;;;;0.65;0.65;;;;;22.60;96003.00;;;;5055982;28;20200;-64
2023/09/17 08:48:09;;;;;;;0.70;0.70;;;;;22.90;96009.00;;;;5055923;28;20658;-64
2023/09/17 08:50:39;;;;;;;2.30;0.98;;;;;23.00;96008.00;;;;5055955;28;20192;-64
2023/09/17 08:53:10;;;;;;;0.68;0.68;;;;;23.00;96004.00;;;;5055983;28;20246;-63
2023/09/17 08:55:38;;;;;;;0.80;0.80;;;;;23.20;96006.00;;;;5056053;28;20184;-65
2023/09/17 08:58:12;;;;;;;1.40;1.30;;;;;23.20;96004.00;;;;5055914;28;20705;-65
2023/09/17 09:00:43;;;;;;;0.50;0.50;;;;;23.30;95999.00;;;;5056066;28;20187;-65
2023/09/17 09:03:13;;;;;;;1.65;0.98;;;;;23.40;96003.00;;;;5056000;28;20569;-65
2023/09/17 09:05:44;;;;;;;1.27;1.23;;;;;23.50;96000.00;;;;5055912;28;20289;-64
2023/09/17 09:08:14;;;;;;;0.90;0.90;;;;;23.50;96000.00;;;;5055917;28;20192;-64
2023/09/17 09:10:42;;;;;;;1.13;1.02;;;;;23.50;96004.00;;;;5056055;28;20223;-64
2023/09/17 09:13:10;;;;;;;0.88;0.88;;;;;23.60;96006.00;;;;5055807;28;20192;-64
2023/09/17 09:15:41;;;;;;;0.70;0.70;;;;;23.80;96011.00;;;;5055911;28;20192;-64
2023/09/17 09:18:08;;;;;;;0.60;0.60;;;;;23.90;96008.00;;;;5055660;28;20196;-64
2023/09/17 09:20:37;;;;;;;0.50;0.50;;;;;24.10;96008.00;;;;5055479;28;20192;-65
2023/09/17 09:23:06;;;;;;;4.47;1.52;;;;;24.10;96016.00;;;;5055671;28;20283;-65
2023/09/17 09:25:34;;;;;;;5.68;0.95;;;;;24.40;96009.00;;;;5055277;28;20212;-65
2023/09/17 09:28:02;;;;;;;7.35;1.42;;;;;24.40;96010.00;;;;5055394;28;20194;-65
2023/09/17 09:30:30;;;;;;;0.75;0.75;;;;;24.40;96005.00;;;;5055297;28;20192;-65
2023/09/17 09:32:58;;;;;;;0.90;0.90;;;;;24.40;96010.00;;;;5055328;28;20188;-65
2023/09/17 09:35:26;;;;;;;0.55;0.55;;;;;24.40;95995.00;;;;5037367;28;20216;-65
2023/09/17 09:37:54;;;;;;;1.05;1.05;;;;;24.30;95994.00;;;;5055145;28;20215;-64
2023/09/17 09:40:24;;;;;;;1.08;0.98;;;;;24.50;95997.00;;;;5055159;28;20192;-64
2023/09/17 09:42:52;;;;;;;0.93;0.93;;;;;24.70;95993.00;;;;5055013;28;20622;-64
2023/09/17 09:45:19;;;;;;;3.70;0.80;;;;;24.80;95990.00;;;;5037002;28;20219;-64
2023/09/17 09:47:51;;;;;;;0.63;0.63;;;;;25.00;95993.00;;;;5055395;28;20199;-63
2023/09/17 09:50:22;;;;;;;0.68;0.68;;;;;24.80;95995.00;;;;5055043;28;20537;-64
2023/09/17 09:52:50;;;;;;;0.60;0.60;;;;;25.00;95984.00;;;;5055301;28;20196;-64
2023/09/17 09:55:18;;;;;;;1.70;1.58;;;;;25.20;95986.00;;;;5055265;28;20216;-64
2023/09/17 09:57:47;;;;;;;0.75;0.75;;;;;25.40;95976.00;;;;5055756;28;20212;-64
2023/09/17 10:00:20;;;;;;;1.48;1.35;;;;;25.50;95978.00;;;;5055809;28;20277;-64
2023/09/17 10:02:47;;;;;;;1.08;0.98;;;;;25.60;95978.00;;;;5055606;28;20694;-64
2023/09/17 10:05:18;;;;;;;0.98;0.98;;;;;25.60;95973.00;;;;5054645;28;20287;-64
2023/09/17 10:07:48;;;;;;;1.15;1.15;;;;;25.70;95970.00;;;;5054796;28;20252;-64
2023/09/17 10:10:16;;;;;;;3.50;1.48;;;;;25.40;95964.00;;;;5054401;28;20246;-64
2023/09/17 10:12:44;;;;;;;0.80;0.80;;;;;25.50;95962.00;;;;5054471;28;20184;-64
2023/09/17 10:15:15;;;;;;;3.78;2.25;;;;;25.80;95954.00;;;;5054270;28;20297;-64
2023/09/17 10:17:42;;;;;;;0.60;0.60;;;;;25.40;95962.00;;;;5037079;28;20539;-64
2023/09/17 10:20:11;;;;;;;0.90;0.90;;;;;25.90;95960.00;;;;5054284;28;20200;-64
2023/09/17 10:22:40;;;;;;;0.70;0.70;;;;;26.10;95956.00;;;;5054504;28;20623;-64
2023/09/17 10:25:09;;;;;;;0.85;0.85;;;;;26.40;95955.00;;;;5054184;28;20216;-65
2023/09/17 10:27:38;;;;;;;0.70;0.70;;;;;26.80;95958.00;;;;5036271;28;20283;-65
2023/09/17 10:30:08;;;;;;;1.23;1.13;;;;;27.00;95956.00;;;;5054169;28;20192;-65
2023/09/17 10:32:37;;;;;;;1.00;1.00;;;;;27.20;95950.00;;;;5054262;28;20192;-65
2023/09/17 10:35:06;;;;;;;1.13;0.80;;;;;27.40;95948.00;;;;5053762;28;20216;-63
2023/09/17 10:37:36;;;;;;;0.82;0.82;;;;;27.50;95950.00;;;;5054032;28;20215;-63
2023/09/17 10:40:08;;;;;;;0.82;0.82;;;;;27.50;95945.00;;;;5053824;28;20192;-64
2023/09/17 10:42:38;;;;;;;2.72;0.90;;;;;27.70;95948.00;;;;5054031;28;20728;-64
2023/09/17 10:45:08;;;;;;;1.02;1.02;;;;;27.90;95947.00;;;;5053735;28;20223;-63
2023/09/17 10:47:39;;;;;;;0.85;0.85;;;;;28.00;95938.00;;;;5054138;28;20212;-63
2023/09/17 10:50:08;;;;;;;0.95;0.95;;;;;27.90;95935.00;;;;5054038;28;20180;-63
2023/09/17 10:52:36;;;;;;;0.52;0.52;;;;;28.10;95931.00;;;;5053787;28;20199;-64
2023/09/17 10:55:06;;;;;;;1.02;1.02;;;;;28.20;95929.00;;;;5054262;28;20212;-65
2023/09/17 10:57:40;;;;;;;3.30;2.38;;;;;28.30;95927.00;;;;5054529;28;20299;-65
2023/09/17 11:00:13;;;;;;;2.03;1.70;;;;;28.40;95927.00;;;;5054684;28;20180;-63
2023/09/17 11:02:45;;;;;;;2.38;0.95;;;;;28.70;95934.00;;;;5054053;28;20204;-63
2023/09/17 11:05:15;;;;;;;1.02;1.02;;;;;28.80;95939.00;;;;5053808;28;20216;-64
2023/09/17 11:07:44;;;;;;;0.80;0.80;;;;;28.40;95936.00;;;;5053466;28;20199;-64
2023/09/17 11:10:14;;;;;;;1.20;1.10;;;;;28.50;95933.00;;;;5036097;28;20278;-64
2023/09/17 11:12:42;;;;;;;0.55;0.55;;;;;28.10;95937.00;;;;5053741;28;20184;-64
2023/09/17 11:15:10;;;;;;;1.05;1.05;;;;;28.60;95932.00;;;;5053174;28;20208;-64
2023/09/17 11:17:39;;;;;;;0.90;0.90;;;;;28.80;95938.00;;;;5053362;28;20227;-64
2023/09/17 11:20:13;;;;;;;1.02;1.02;;;;;29.10;95943.00;;;;5053312;28;20199;-64
2023/09/17 11:22:43;;;;;;;0.70;0.70;;;;;29.00;95940.00;;;;5053705;28;20181;-64
2023/09/17 11:25:11;;;;;;;0.70;0.70;;;;;29.00;95938.00;;;;5053044;28;20710;-64
2023/09/17 11:27:51;;;;;;;0.90;0.90;;;;;29.20;95929.00;;;;5053491;28;20191;-64
2023/09/17 11:30:23;;;;;;;0.77;0.77;;;;;29.20;95927.00;;;;5053265;28;20188;-64
2023/09/17 11:32:54;;;;;;;0.80;0.80;;;;;29.60;95929.00;;;;5053455;28;20604;-65
2023/09/17 11:35:25;;;;;;;0.63;0.63;;;;;29.90;95932.00;;;;5052089;28;20259;-64
2023/09/17 11:37:53;;;;;;;0.90;0.90;;;;;29.70;95931.00;;;;5053420;28;20205;-64
2023/09/17 11:40:20;;;;;;;0.90;0.90;;;;;29.80;95939.00;;;;5052789;28;20196;-65
2023/09/17 11:42:48;;;;;;;1.65;1.55;;;;;30.00;95934.00;;;;5053576;28;20196;-64
2023/09/17 11:45:15;;;;;;;0.90;0.90;;;;;29.30;95931.00;;;;5052771;28;20602;-64
2023/09/17 11:47:43;;;;;;;1.40;1.30;;;;;29.20;95929.00;;;;5053234;28;20733;-64
2023/09/17 11:50:11;;;;;;;1.65;1.27;;;;;28.80;95929.00;;;;5052752;28;20279;-64
2023/09/17 11:52:41;;;;;;;0.90;0.90;;;;;28.80;95920.00;;;;5053210;28;20195;-65
2023/09/17 11:55:22;;;;;;;0.70;0.70;;;;;29.20;95918.00;;;;5052812;28;20222;-64
2023/09/17 11:57:49;;;;;;;0.98;0.98;;;;;29.80;95913.00;;;;5053110;28;20196;-64
2023/09/17 12:00:29;;;;;;;0.80;0.80;;;;;29.80;95922.00;;;;5053380;28;20271;-64
2023/09/17 12:02:57;;;;;;;1.52;1.42;;;;;29.50;95916.00;;;;5052814;28;20257;-65
2023/09/17 12:05:24;;;;;;;0.70;0.70;;;;;30.00;95914.00;;;;5052877;28;20220;-64
2023/09/17 12:07:53;;;;;;;1.45;1.35;;;;;30.10;95915.00;;;;5052871;28;20196;-64
2023/09/17 12:10:26;;;;;;;0.90;0.90;;;;;30.10;95908.00;;;;5052502;28;20192;-65
2023/09/17 12:12:55;;;;;;;0.70;0.70;;;;;30.20;95895.00;;;;5034707;28;20287;-64
2023/09/17 12:15:23;;;;;;;0.88;0.88;;;;;30.20;95914.00;;;;5052615;28;20243;-64
2023/09/17 12:17:51;;;;;;;1.50;1.33;;;;;30.20;95916.00;;;;5052975;28;20247;-64
2023/09/17 12:20:33;;;;;;;1.15;1.08;;;;;30.30;95903.00;;;;5053258;28;20224;-64
2023/09/17 12:23:06;;;;;;;0.80;0.80;;;;;30.90;95900.00;;;;5035296;28;20287;-64
2023/09/17 12:25:43;;;;;;;1.02;1.02;;;;;30.80;95906.00;;;;5052989;28;20294;-64